sensor_id;sensor_type;location;lat;lon;timestamp;temperature;humidity
41060;DHT22;26811;53.160;8.202;2023-11-25T00:01:56;1.80;99.90
41060;DHT22;26811;53.160;8.202;2023-11-25T00:06:57;1.70;99.90
41060;DHT22;26811;53.160;8.202;2023-11-25T00:11:57;1.70;99.90
41060;DHT22;26811;53.160;8.202;2023-11-25T00:16:58;1.70;99.90
41060;DHT22;26811;53.160;8.202;2023-11-25T00:21:59;1.70;99.90
41060;DHT22;26811;53.160;8.202;2023-11-25T00:26:59;1.60;99.90
41060;DHT22;26811;53.160;8.202;2023-11-25T00:32:01;1.60;99.90
41060;DHT22;26811;53.160;8.202;2023-11-25T00:37:01;1.60;99.90
41060;DHT22;26811;53.160;8.202;2023-11-25T00:42:02;1.60;99.90
41060;DHT22;26811;53.160;8.202;2023-11-25T00:47:03;1.70;99.90
41060;DHT22;26811;53.160;8.202;2023-11-25T00:52:06;1.70;99.90
41060;DHT22;26811;53.160;8.202;2023-11-25T00:57:07;1.90;99.90
41060;DHT22;26811;53.160;8.202;2023-11-25T01:02:07;2.00;99.90
41060;DHT22;26811;53.160;8.202;2023-11-25T01:07:08;2.00;99.90
41060;DHT22;26811;53.160;8.202;2023-11-25T01:12:08;2.10;99.90
41060;DHT22;26811;53.160;8.202;2023-11-25T01:17:09;2.10;99.90
41060;DHT22;26811;53.160;8.202;2023-11-25T01:22:09;2.00;99.90
41060;DHT22;26811;53.160;8.202;2023-11-25T01:27:10;2.10;99.90
41060;DHT22;26811;53.160;8.202;2023-11-25T01:32:11;2.00;99.90
41060;DHT22;26811;53.160;8.202;2023-11-25T01:37:11;2.00;99.90
41060;DHT22;26811;53.160;8.202;2023-11-25T01:42:15;1.90;99.90
41060;DHT22;26811;53.160;8.202;2023-11-25T01:47:16;1.90;99.90
41060;DHT22;26811;53.160;8.202;2023-11-25T01:52:18;1.90;99.90
41060;DHT22;26811;53.160;8.202;2023-11-25T01:57:19;1.90;99.90
41060;DHT22;26811;53.160;8.202;2023-11-25T02:02:25;1.90;99.90
41060;DHT22;26811;53.160;8.202;2023-11-25T02:07:26;1.90;99.90
41060;DHT22;26811;53.160;8.202;2023-11-25T02:12:27;2.00;99.90
41060;DHT22;26811;53.160;8.202;2023-11-25T02:17:27;2.10;99.90
41060;DHT22;26811;53.160;8.202;2023-11-25T02:22:28;2.20;99.90
41060;DHT22;26811;53.160;8.202;2023-11-25T02:27:28;2.20;99.90
41060;DHT22;26811;53.160;8.202;2023-11-25T02:32:29;2.40;99.90
41060;DHT22;26811;53.160;8.202;2023-11-25T02:37:29;2.40;99.90
41060;DHT22;26811;53.160;8.202;2023-11-25T02:42:30;2.40;99.90
41060;DHT22;26811;53.160;8.202;2023-11-25T02:47:31;2.40;99.90
41060;DHT22;26811;53.160;8.202;2023-11-25T02:52:31;2.40;99.90
41060;DHT22;26811;53.160;8.202;2023-11-25T02:57:32;2.50;99.90
41060;DHT22;26811;53.160;8.202;2023-11-25T03:02:32;2.50;99.90
41060;DHT22;26811;53.160;8.202;2023-11-25T03:07:34;2.60;99.90
41060;DHT22;26811;53.160;8.202;2023-11-25T03:12:37;2.70;99.90
41060;DHT22;26811;53.160;8.202;2023-11-25T03:17:38;2.80;99.90
41060;DHT22;26811;53.160;8.202;2023-11-25T03:22:39;2.90;99.90
41060;DHT22;26811;53.160;8.202;2023-11-25T03:27:39;2.90;99.90
41060;DHT22;26811;53.160;8.202;2023-11-25T03:32:41;2.90;99.90
41060;DHT22;26811;53.160;8.202;2023-11-25T03:37:41;3.00;99.90
41060;DHT22;26811;53.160;8.202;2023-11-25T03:42:43;3.00;99.90
41060;DHT22;26811;53.160;8.202;2023-11-25T03:47:45;3.10;99.90
41060;DHT22;26811;53.160;8.202;2023-11-25T03:52:45;3.10;99.90
41060;DHT22;26811;53.160;8.202;2023-11-25T03:57:46;3.20;99.90
41060;DHT22;26811;53.160;8.202;2023-11-25T04:02:47;3.40;99.90
41060;DHT22;26811;53.160;8.202;2023-11-25T04:07:47;3.40;99.90
41060;DHT22;26811;53.160;8.202;2023-11-25T04:12:49;3.40;99.90
41060;DHT22;26811;53.160;8.202;2023-11-25T04:17:51;3.40;99.90
41060;DHT22;26811;53.160;8.202;2023-11-25T04:22:52;3.40;99.90
41060;DHT22;26811;53.160;8.202;2023-11-25T04:27:52;3.40;99.90
41060;DHT22;26811;53.160;8.202;2023-11-25T04:32:53;3.40;99.90
41060;DHT22;26811;53.160;8.202;2023-11-25T04:37:53;3.30;99.90
41060;DHT22;26811;53.160;8.202;2023-11-25T04:42:54;3.30;99.90
41060;DHT22;26811;53.160;8.202;2023-11-25T04:47:54;3.20;99.90
41060;DHT22;26811;53.160;8.202;2023-11-25T04:52:55;3.20;99.90
41060;DHT22;26811;53.160;8.202;2023-11-25T04:57:55;3.10;99.90
41060;DHT22;26811;53.160;8.202;2023-11-25T05:02:56;3.10;99.90
41060;DHT22;26811;53.160;8.202;2023-11-25T05:07:57;3.10;99.90
41060;DHT22;26811;53.160;8.202;2023-11-25T05:12:58;3.20;99.90
41060;DHT22;26811;53.160;8.202;2023-11-25T05:17:58;3.30;99.90
41060;DHT22;26811;53.160;8.202;2023-11-25T05:22:58;3.40;99.90
41060;DHT22;26811;53.160;8.202;2023-11-25T05:27:59;3.40;99.90
41060;DHT22;26811;53.160;8.202;2023-11-25T05:33:00;3.50;99.90
41060;DHT22;26811;53.160;8.202;2023-11-25T05:38:00;3.60;99.90
41060;DHT22;26811;53.160;8.202;2023-11-25T05:43:01;3.70;99.90
41060;DHT22;26811;53.160;8.202;2023-11-25T05:48:03;3.80;99.90
41060;DHT22;26811;53.160;8.202;2023-11-25T05:53:03;3.90;99.90
41060;DHT22;26811;53.160;8.202;2023-11-25T05:58:04;4.00;99.90
41060;DHT22;26811;53.160;8.202;2023-11-25T06:03:04;4.00;99.90
41060;DHT22;26811;53.160;8.202;2023-11-25T06:08:05;4.00;99.90
41060;DHT22;26811;53.160;8.202;2023-11-25T06:13:05;4.10;99.90
41060;DHT22;26811;53.160;8.202;2023-11-25T06:18:06;4.00;99.90
41060;DHT22;26811;53.160;8.202;2023-11-25T06:23:07;4.00;99.90
41060;DHT22;26811;53.160;8.202;2023-11-25T06:28:12;3.90;99.90
41060;DHT22;26811;53.160;8.202;2023-11-25T06:33:13;3.90;99.90
41060;DHT22;26811;53.160;8.202;2023-11-25T06:38:14;3.80;99.90
41060;DHT22;26811;53.160;8.202;2023-11-25T06:43:14;3.80;99.90
41060;DHT22;26811;53.160;8.202;2023-11-25T06:48:18;3.80;99.90
41060;DHT22;26811;53.160;8.202;2023-11-25T06:53:19;3.80;99.90
41060;DHT22;26811;53.160;8.202;2023-11-25T06:58:20;3.80;99.90
41060;DHT22;26811;53.160;8.202;2023-11-25T07:03:21;3.90;99.90
41060;DHT22;26811;53.160;8.202;2023-11-25T07:08:23;3.90;99.90
41060;DHT22;26811;53.160;8.202;2023-11-25T07:13:24;4.00;99.90
41060;DHT22;26811;53.160;8.202;2023-11-25T07:18:28;4.00;99.90
41060;DHT22;26811;53.160;8.202;2023-11-25T07:23:28;4.00;99.90
41060;DHT22;26811;53.160;8.202;2023-11-25T07:28:29;4.00;99.90
41060;DHT22;26811;53.160;8.202;2023-11-25T07:33:30;4.00;99.90
41060;DHT22;26811;53.160;8.202;2023-11-25T07:38:30;4.00;99.90
41060;DHT22;26811;53.160;8.202;2023-11-25T07:43:31;4.00;99.90
41060;DHT22;26811;53.160;8.202;2023-11-25T07:48:31;4.10;99.90
41060;DHT22;26811;53.160;8.202;2023-11-25T07:53:33;4.10;99.90
41060;DHT22;26811;53.160;8.202;2023-11-25T07:58:33;4.10;99.90
41060;DHT22;26811;53.160;8.202;2023-11-25T08:03:34;4.10;99.90
41060;DHT22;26811;53.160;8.202;2023-11-25T08:08:35;4.10;99.90
41060;DHT22;26811;53.160;8.202;2023-11-25T08:13:35;4.10;99.90
41060;DHT22;26811;53.160;8.202;2023-11-25T08:18:36;4.20;99.90
41060;DHT22;26811;53.160;8.202;2023-11-25T08:23:36;4.30;99.90
41060;DHT22;26811;53.160;8.202;2023-11-25T08:28:37;4.30;99.90
41060;DHT22;26811;53.160;8.202;2023-11-25T08:33:39;4.20;99.90
41060;DHT22;26811;53.160;8.202;2023-11-25T08:38:40;4.10;99.90
41060;DHT22;26811;53.160;8.202;2023-11-25T08:43:41;4.10;99.90
41060;DHT22;26811;53.160;8.202;2023-11-25T08:48:43;4.10;99.90
41060;DHT22;26811;53.160;8.202;2023-11-25T08:53:45;4.30;99.90
41060;DHT22;26811;53.160;8.202;2023-11-25T08:58:47;4.60;99.90
41060;DHT22;26811;53.160;8.202;2023-11-25T09:03:48;4.90;99.90
41060;DHT22;26811;53.160;8.202;2023-11-25T09:08:48;5.00;99.90
41060;DHT22;26811;53.160;8.202;2023-11-25T09:13:49;5.10;99.90
41060;DHT22;26811;53.160;8.202;2023-11-25T09:18:50;5.10;99.90
41060;DHT22;26811;53.160;8.202;2023-11-25T09:23:51;5.10;99.90
41060;DHT22;26811;53.160;8.202;2023-11-25T09:28:52;5.00;99.90
41060;DHT22;26811;53.160;8.202;2023-11-25T09:33:55;5.00;99.90
41060;DHT22;26811;53.160;8.202;2023-11-25T09:38:57;5.00;99.90
41060;DHT22;26811;53.160;8.202;2023-11-25T09:43:57;4.90;99.90
41060;DHT22;26811;53.160;8.202;2023-11-25T09:48:58;4.90;99.90
41060;DHT22;26811;53.160;8.202;2023-11-25T09:54:03;5.00;99.90
41060;DHT22;26811;53.160;8.202;2023-11-25T09:59:11;5.10;99.90
41060;DHT22;26811;53.160;8.202;2023-11-25T10:04:12;5.20;99.90
41060;DHT22;26811;53.160;8.202;2023-11-25T10:09:16;5.20;99.90
41060;DHT22;26811;53.160;8.202;2023-11-25T10:14:17;5.30;99.90
41060;DHT22;26811;53.160;8.202;2023-11-25T10:19:19;5.40;99.90
41060;DHT22;26811;53.160;8.202;2023-11-25T10:24:20;5.50;99.90
41060;DHT22;26811;53.160;8.202;2023-11-25T10:29:21;5.60;99.90
41060;DHT22;26811;53.160;8.202;2023-11-25T10:34:25;5.70;99.90
41060;DHT22;26811;53.160;8.202;2023-11-25T10:39:26;5.80;99.90
41060;DHT22;26811;53.160;8.202;2023-11-25T10:44:27;5.90;99.90
41060;DHT22;26811;53.160;8.202;2023-11-25T10:49:31;5.90;99.90
41060;DHT22;26811;53.160;8.202;2023-11-25T10:54:33;5.90;99.90
41060;DHT22;26811;53.160;8.202;2023-11-25T10:59:37;5.80;99.90
41060;DHT22;26811;53.160;8.202;2023-11-25T11:04:56;5.70;99.90
41060;DHT22;26811;53.160;8.202;2023-11-25T11:10:01;5.60;99.90
41060;DHT22;26811;53.160;8.202;2023-11-25T11:15:03;5.60;99.90
41060;DHT22;26811;53.160;8.202;2023-11-25T11:20:09;5.60;99.90
41060;DHT22;26811;53.160;8.202;2023-11-25T11:25:20;5.60;99.90
41060;DHT22;26811;53.160;8.202;2023-11-25T11:35:37;5.80;99.90
41060;DHT22;26811;53.160;8.202;2023-11-25T11:40:38;5.80;99.90
41060;DHT22;26811;53.160;8.202;2023-11-25T11:45:38;5.80;99.90
41060;DHT22;26811;53.160;8.202;2023-11-25T11:50:43;5.90;99.90
41060;DHT22;26811;53.160;8.202;2023-11-25T11:55:54;5.80;99.90
41060;DHT22;26811;53.160;8.202;2023-11-25T12:06:02;5.80;99.90
41060;DHT22;26811;53.160;8.202;2023-11-25T12:11:03;5.80;99.90
41060;DHT22;26811;53.160;8.202;2023-11-25T12:16:06;5.80;99.90
41060;DHT22;26811;53.160;8.202;2023-11-25T12:21:08;5.80;99.90
41060;DHT22;26811;53.160;8.202;2023-11-25T12:26:09;5.80;99.90
41060;DHT22;26811;53.160;8.202;2023-11-25T12:31:10;5.70;99.90
41060;DHT22;26811;53.160;8.202;2023-11-25T12:36:14;5.70;99.90
41060;DHT22;26811;53.160;8.202;2023-11-25T12:41:14;5.70;99.90
41060;DHT22;26811;53.160;8.202;2023-11-25T12:46:15;5.70;99.90
41060;DHT22;26811;53.160;8.202;2023-11-25T12:51:18;5.70;99.90
41060;DHT22;26811;53.160;8.202;2023-11-25T12:56:18;5.70;99.90
41060;DHT22;26811;53.160;8.202;2023-11-25T13:01:23;5.70;99.90
41060;DHT22;26811;53.160;8.202;2023-11-25T13:06:25;5.60;99.90
41060;DHT22;26811;53.160;8.202;2023-11-25T13:11:25;5.60;99.90
41060;DHT22;26811;53.160;8.202;2023-11-25T13:16:26;5.70;99.90
41060;DHT22;26811;53.160;8.202;2023-11-25T13:21:26;5.70;99.90
41060;DHT22;26811;53.160;8.202;2023-11-25T13:26:27;5.60;99.90
41060;DHT22;26811;53.160;8.202;2023-11-25T13:31:28;5.50;99.90
41060;DHT22;26811;53.160;8.202;2023-11-25T13:36:28;5.40;99.90
41060;DHT22;26811;53.160;8.202;2023-11-25T13:41:29;5.30;99.90
41060;DHT22;26811;53.160;8.202;2023-11-25T13:46:29;5.30;99.90
41060;DHT22;26811;53.160;8.202;2023-11-25T13:51:30;5.30;99.90
41060;DHT22;26811;53.160;8.202;2023-11-25T13:56:30;5.20;99.90
41060;DHT22;26811;53.160;8.202;2023-11-25T14:01:31;5.10;99.90
41060;DHT22;26811;53.160;8.202;2023-11-25T14:06:32;5.00;99.90
41060;DHT22;26811;53.160;8.202;2023-11-25T14:11:32;5.00;99.90
41060;DHT22;26811;53.160;8.202;2023-11-25T14:16:33;4.90;99.90
41060;DHT22;26811;53.160;8.202;2023-11-25T14:21:34;4.90;99.90
41060;DHT22;26811;53.160;8.202;2023-11-25T14:26:35;4.90;99.90
41060;DHT22;26811;53.160;8.202;2023-11-25T14:31:37;4.90;99.90
41060;DHT22;26811;53.160;8.202;2023-11-25T14:36:37;4.80;99.90
41060;DHT22;26811;53.160;8.202;2023-11-25T14:41:38;4.80;99.90
41060;DHT22;26811;53.160;8.202;2023-11-25T14:46:39;4.80;99.90
41060;DHT22;26811;53.160;8.202;2023-11-25T14:51:40;4.70;99.90
41060;DHT22;26811;53.160;8.202;2023-11-25T14:56:41;4.60;99.90
41060;DHT22;26811;53.160;8.202;2023-11-25T15:01:45;4.50;99.90
41060;DHT22;26811;53.160;8.202;2023-11-25T15:06:46;4.40;99.90
41060;DHT22;26811;53.160;8.202;2023-11-25T15:11:47;4.40;99.90
41060;DHT22;26811;53.160;8.202;2023-11-25T15:16:48;4.20;99.90
41060;DHT22;26811;53.160;8.202;2023-11-25T15:21:51;4.10;99.90
41060;DHT22;26811;53.160;8.202;2023-11-25T15:26:51;4.00;99.90
41060;DHT22;26811;53.160;8.202;2023-11-25T15:31:52;3.80;99.90
41060;DHT22;26811;53.160;8.202;2023-11-25T15:36:53;3.70;99.90
41060;DHT22;26811;53.160;8.202;2023-11-25T15:41:54;3.70;99.90
41060;DHT22;26811;53.160;8.202;2023-11-25T15:46:54;3.60;99.90
41060;DHT22;26811;53.160;8.202;2023-11-25T15:51:55;3.40;99.90
41060;DHT22;26811;53.160;8.202;2023-11-25T15:56:56;3.40;99.90
41060;DHT22;26811;53.160;8.202;2023-11-25T16:01:57;3.40;99.90
41060;DHT22;26811;53.160;8.202;2023-11-25T16:06:57;3.30;99.90
41060;DHT22;26811;53.160;8.202;2023-11-25T16:11:58;3.30;99.90
41060;DHT22;26811;53.160;8.202;2023-11-25T16:16:59;3.30;99.90
41060;DHT22;26811;53.160;8.202;2023-11-25T16:21:59;3.20;99.90
41060;DHT22;26811;53.160;8.202;2023-11-25T16:27:00;3.10;99.90
41060;DHT22;26811;53.160;8.202;2023-11-25T16:32:01;3.00;99.90
41060;DHT22;26811;53.160;8.202;2023-11-25T16:37:02;2.80;99.90
41060;DHT22;26811;53.160;8.202;2023-11-25T16:42:03;2.70;99.90
41060;DHT22;26811;53.160;8.202;2023-11-25T16:47:04;2.70;99.90
41060;DHT22;26811;53.160;8.202;2023-11-25T16:52:05;2.70;99.90
41060;DHT22;26811;53.160;8.202;2023-11-25T16:57:05;2.70;99.90
41060;DHT22;26811;53.160;8.202;2023-11-25T17:02:06;2.80;99.90
41060;DHT22;26811;53.160;8.202;2023-11-25T17:07:07;2.80;99.90
41060;DHT22;26811;53.160;8.202;2023-11-25T17:12:09;2.80;99.90
41060;DHT22;26811;53.160;8.202;2023-11-25T17:17:10;2.80;99.90
41060;DHT22;26811;53.160;8.202;2023-11-25T17:22:12;2.70;99.90
41060;DHT22;26811;53.160;8.202;2023-11-25T17:27:13;2.60;99.90
41060;DHT22;26811;53.160;8.202;2023-11-25T17:32:13;2.60;99.90
41060;DHT22;26811;53.160;8.202;2023-11-25T17:37:14;2.50;99.90
41060;DHT22;26811;53.160;8.202;2023-11-25T17:42:15;2.50;99.90
41060;DHT22;26811;53.160;8.202;2023-11-25T17:47:15;2.40;99.90
41060;DHT22;26811;53.160;8.202;2023-11-25T17:52:16;2.40;99.90
41060;DHT22;26811;53.160;8.202;2023-11-25T17:57:17;2.30;99.90
41060;DHT22;26811;53.160;8.202;2023-11-25T18:02:18;2.20;99.90
41060;DHT22;26811;53.160;8.202;2023-11-25T18:07:20;2.10;99.90
41060;DHT22;26811;53.160;8.202;2023-11-25T18:12:21;2.10;99.90
41060;DHT22;26811;53.160;8.202;2023-11-25T18:17:21;2.00;99.90
41060;DHT22;26811;53.160;8.202;2023-11-25T18:22:22;1.90;99.90
41060;DHT22;26811;53.160;8.202;2023-11-25T18:27:22;1.80;99.90
41060;DHT22;26811;53.160;8.202;2023-11-25T18:32:23;1.80;99.90
41060;DHT22;26811;53.160;8.202;2023-11-25T18:37:23;1.60;99.90
41060;DHT22;26811;53.160;8.202;2023-11-25T18:42:24;1.50;99.90
41060;DHT22;26811;53.160;8.202;2023-11-25T18:47:26;1.50;99.90
41060;DHT22;26811;53.160;8.202;2023-11-25T18:52:26;1.40;99.90
41060;DHT22;26811;53.160;8.202;2023-11-25T18:57:27;1.30;99.90
41060;DHT22;26811;53.160;8.202;2023-11-25T19:02:27;1.30;99.90
41060;DHT22;26811;53.160;8.202;2023-11-25T19:07:28;1.20;99.90
41060;DHT22;26811;53.160;8.202;2023-11-25T19:12:28;1.20;99.90
41060;DHT22;26811;53.160;8.202;2023-11-25T19:17:29;1.10;99.90
41060;DHT22;26811;53.160;8.202;2023-11-25T19:22:30;1.20;99.90
41060;DHT22;26811;53.160;8.202;2023-11-25T19:27:31;1.20;99.90
41060;DHT22;26811;53.160;8.202;2023-11-25T19:32:31;1.30;99.90
41060;DHT22;26811;53.160;8.202;2023-11-25T19:37:32;1.40;99.90
41060;DHT22;26811;53.160;8.202;2023-11-25T19:42:32;1.40;99.90
41060;DHT22;26811;53.160;8.202;2023-11-25T19:47:33;1.30;99.90
41060;DHT22;26811;53.160;8.202;2023-11-25T19:52:34;1.30;99.90
41060;DHT22;26811;53.160;8.202;2023-11-25T19:57:34;1.20;99.90
41060;DHT22;26811;53.160;8.202;2023-11-25T20:02:36;1.20;99.90
41060;DHT22;26811;53.160;8.202;2023-11-25T20:07:37;1.20;99.90
41060;DHT22;26811;53.160;8.202;2023-11-25T20:12:38;1.30;99.90
41060;DHT22;26811;53.160;8.202;2023-11-25T20:17:39;1.40;99.90
41060;DHT22;26811;53.160;8.202;2023-11-25T20:22:42;1.40;99.90
41060;DHT22;26811;53.160;8.202;2023-11-25T20:27:43;1.50;99.90
41060;DHT22;26811;53.160;8.202;2023-11-25T20:32:44;1.60;99.90
41060;DHT22;26811;53.160;8.202;2023-11-25T20:37:44;1.70;99.90
41060;DHT22;26811;53.160;8.202;2023-11-25T20:42:45;1.80;99.90
41060;DHT22;26811;53.160;8.202;2023-11-25T20:47:46;1.90;99.90
41060;DHT22;26811;53.160;8.202;2023-11-25T20:52:47;2.00;99.90
41060;DHT22;26811;53.160;8.202;2023-11-25T20:57:47;2.00;99.90
41060;DHT22;26811;53.160;8.202;2023-11-25T21:02:48;2.00;99.90
41060;DHT22;26811;53.160;8.202;2023-11-25T21:07:49;1.90;99.90
41060;DHT22;26811;53.160;8.202;2023-11-25T21:12:50;1.80;99.90
41060;DHT22;26811;53.160;8.202;2023-11-25T21:17:50;1.70;99.90
41060;DHT22;26811;53.160;8.202;2023-11-25T21:22:51;1.60;99.90
41060;DHT22;26811;53.160;8.202;2023-11-25T21:27:52;1.50;99.90
41060;DHT22;26811;53.160;8.202;2023-11-25T21:32:54;1.40;99.90
41060;DHT22;26811;53.160;8.202;2023-11-25T21:37:57;1.20;99.90
41060;DHT22;26811;53.160;8.202;2023-11-25T21:42:57;1.20;99.90
41060;DHT22;26811;53.160;8.202;2023-11-25T21:47:58;1.00;99.90
41060;DHT22;26811;53.160;8.202;2023-11-25T21:52:58;1.00;99.90
41060;DHT22;26811;53.160;8.202;2023-11-25T21:58:00;0.90;99.90
41060;DHT22;26811;53.160;8.202;2023-11-25T22:03:00;0.80;99.90
41060;DHT22;26811;53.160;8.202;2023-11-25T22:08:01;0.80;99.90
41060;DHT22;26811;53.160;8.202;2023-11-25T22:13:02;0.70;99.90
41060;DHT22;26811;53.160;8.202;2023-11-25T22:18:02;0.70;99.90
41060;DHT22;26811;53.160;8.202;2023-11-25T22:23:03;0.60;99.90
41060;DHT22;26811;53.160;8.202;2023-11-25T22:28:04;0.60;99.90
41060;DHT22;26811;53.160;8.202;2023-11-25T22:33:08;0.50;99.90
41060;DHT22;26811;53.160;8.202;2023-11-25T22:38:08;0.50;99.90
41060;DHT22;26811;53.160;8.202;2023-11-25T22:43:10;0.50;99.90
41060;DHT22;26811;53.160;8.202;2023-11-25T22:48:10;0.50;99.90
41060;DHT22;26811;53.160;8.202;2023-11-25T22:53:11;0.60;99.90
41060;DHT22;26811;53.160;8.202;2023-11-25T22:58:12;0.60;99.90
41060;DHT22;26811;53.160;8.202;2023-11-25T23:03:13;0.60;99.90
41060;DHT22;26811;53.160;8.202;2023-11-25T23:08:13;0.60;99.90
41060;DHT22;26811;53.160;8.202;2023-11-25T23:13:14;0.70;99.90
41060;DHT22;26811;53.160;8.202;2023-11-25T23:18:15;0.70;99.90
41060;DHT22;26811;53.160;8.202;2023-11-25T23:23:15;0.70;99.90
41060;DHT22;26811;53.160;8.202;2023-11-25T23:28:16;0.60;99.90
41060;DHT22;26811;53.160;8.202;2023-11-25T23:33:17;0.60;99.90
41060;DHT22;26811;53.160;8.202;2023-11-25T23:38:17;0.60;99.90
41060;DHT22;26811;53.160;8.202;2023-11-25T23:43:18;0.70;99.90
41060;DHT22;26811;53.160;8.202;2023-11-25T23:48:19;0.70;99.90
41060;DHT22;26811;53.160;8.202;2023-11-25T23:53:19;0.80;99.90
41060;DHT22;26811;53.160;8.202;2023-11-25T23:58:20;0.80;99.90
